AirNav   Free Bose QuietComfort 20
 
 1444 users online  

6FL1 Mayo Clinic Heliport
Jacksonville, Florida, USA

GOING TO JACKSONVILLE?


FAA INFORMATION EFFECTIVE 05 DECEMBER 2019

Location

FAA Identifier: 6FL1
Lat/Long: 30-15-53.9000N 081-26-27.1000W
30-15.898333N 081-26.451667W
30.2649722,-81.4408611
(estimated)
Elevation: 15 ft. / 5 m (estimated)
From city: 13 miles SE of JACKSONVILLE, FL
Time zone: UTC -5 (UTC -4 during Daylight Saving Time)
Zip code: 32224

Heliport Operations

Heliport use: Private use. Permission required prior to landing
Activation date: 03/2009
Control tower: no
ARTCC: JACKSONVILLE CENTER
FSS: GAINESVILLE FLIGHT SERVICE STATION
Attendance: IREG
Wind indicator: lighted
Segmented circle: no
Lights: SS-SR
Beacon: white-green-yellow (heliport)

Heliport Communications

UNICOM: 123.05
WX ASOS at CRG (6 nm NW): PHONE 904-646-4670
WX ASOS at JAX (19 nm NW): PHONE 904-741-4304
WX AWOS-3 at HEG (19 nm W): 119.275 (904-695-0334)
WX AWOS-3PT at SGJ (19 nm S): 119.625 (904-824-7084)

Nearby radio navigation aids

VOR radial/distance  VOR name  Freq  Var
CRGr144/5.7CRAIG VORTAC114.5003W
SGJr349/19.4ST AUGUSTINE VOR/DME109.4006W
VQQr085/(23.5)CECIL VOR117.9003W

 
NDB name  Hdg/Dist  Freq  Var  ID
REYNOLDS039/21.133807WRYD .-. -.-- -..

Heliport Services

Runway Information

Helipad H1

Dimensions: 40 x 40 ft. / 12 x 12 m
Surface: concrete
Runway edge lights: PERI
Traffic pattern: leftleft

Heliport Ownership and Management from official FAA records

Ownership: Privately-owned
Owner: MAYO CLINIC
4500 SAN PABLO RD.
JACKSONVILLE, FL 32224
Phone 904-953-2000
Manager: KEITH TRAPANIER
MBIU-513 1216 2ND ST SW
ROCHESTER, MN 55905
Phone (507) 255-6156

Additional Remarks

FOR CD CTC JACKSONVILLE APCH AT 904-741-0284.

Instrument Procedures

There are no published instrument procedures at 6FL1.

Some nearby airports with instrument procedures:

KCRG - Jacksonville Executive Airport at Craig (6 nm NW)
KNRB - Mayport Naval Station (Adm David L. McDonald Field) (8 nm N)
KNIP - Jacksonville Naval Air Station (Towers Field) (12 nm W)
KJAX - Jacksonville International Airport (19 nm NW)
KHEG - Herlong Recreational Airport (19 nm W)
KSGJ - Northeast Florida Regional Airport (19 nm S)
 
Loc | Ops | Rwys | IFR | FBO | Links
Com | Nav | Svcs | Stats | Notes
Aerial photo
WARNING: Photo may not be current or correct
Aerial photo of 6FL1 (Mayo Clinic Heliport)
Photo by Gaylord L. Bridegan
Photo taken 09-Aug-2013
looking east.

Do you have a better or more recent aerial photo of Mayo Clinic Heliport that you would like to share? If so, please send us your photo.

 
Sectional chart

 
Airport distance calculator
Flying to Mayo Clinic Heliport? Find the distance to fly.

From to 6FL1

Sunrise and sunset
Times for 06-Dec-2019
 Local
(UTC-5)
 Zulu
(UTC)
Morning civil twilight06:4311:43
Sunrise07:1012:10
Sunset17:2422:24
Evening civil twilight17:5022:50

Current date and time
Zulu (UTC)  06-Dec-2019 16:08:19
Local (UTC-5)  06-Dec-2019 11:08:19
 
METAR
KCRG 
6nm NW 
061553Z 00000KT 10SM CLR 18/11 A3021 RMK AO2 SLP229 T01830106
KNRB 
7nm N 
061552Z 00000KT 10SM FEW020 SCT150 SCT250 19/12 A3021 RMK AO2 SLP227 T01890117 $
KNIP 
12nm W 
061553Z 35003KT 10SM FEW030 FEW100 SCT150 SCT250 18/08 A3023 RMK AO2 SLP230 T01830083 $
KJAX 
19nm NW 
061556Z VRB03KT 10SM FEW120 FEW180 FEW250 19/10 A3021 RMK AO2 SLP229 T01890100
KHEG 
19nm W 
061555Z AUTO 00000KT 5SM HZ CLR 19/10 A3023 RMK AO2
KSGJ 
19nm S 
061556Z 09003KT 10SM CLR 19/13 A3022 RMK AO2 SLP231 T01940128 $
TAF
KCRG 
6nm NW 
061120Z 0612/0712 VRB03KT P6SM SCT250 FM061700 21008KT P6SM SCT250 FM062300 VRB03KT P6SM BKN250
KNRB 
7nm N 
0607/0707 VRB03KT 9999 BKN250 QNH3015INS FM061500 14006KT 9999 FEW025 SCT150 SCT250 QNH3011INS FM061900 17008KT 9999 FEW035 BKN120 BKN250 QNH3012INS FM062300 32006KT 9999 SCT030 BKN120 BKN250 QNH3014INS FM070500 01006KT 9999 SCT030 BKN100 OVC250 QNH3018INS AUTOMATED SENSOR METWATCH 0607 TIL 0610 T12/0612Z T22/0620Z FN00216
KNIP 
12nm W 
0607/0707 VRB04KT 9999 BKN250 QNH3015INS FM061500 21006KT 9999 FEW025 SCT120 BKN250 QNH3010INS FM062100 24008KT 9999 FEW030 SCT120 BKN250 QNH3014INS FM070200 VRB05KT 9999 SCT030 BKN120 BKN250 QNH3016INS T12/0611Z T23/0620Z FN00216
KJAX 
19nm NW 
061120Z 0612/0712 VRB03KT P6SM SCT250 FM061700 19007KT P6SM BKN250 FM062300 VRB03KT P6SM BKN250
KSGJ 
19nm S 
061120Z 0612/0712 VRB05KT P6SM SKC FM061800 11007KT P6SM FEW250 FM070000 VRB03KT P6SM SKC
NOTAMs
Click for the latest NOTAMs
NOTAMs are issued by the DoD/FAA and will open in a separate window not controlled by AirNav.

 

 
 

Would you like to see your business listed on this page?

 If your business provides an interesting product or service to pilots, flight crews, aircraft, or users of the Mayo Clinic Heliport, you should consider listing it here.  To start the listing process, click on the button below
 
Add a business
 

Other Pages about Mayo Clinic Heliport

Update a link
 
Copyright © AirNav, LLC. All rights reserved. Privacy Policy  Contact